Time;durP1;ratioP1;P1;durP2;ratioP2;P2;SDS_P1;SDS_P2;PMS_P1;PMS_P2;Temp;Humidity;BMP_temperature;BMP_pressure;BME280_temperature;BME280_humidity;BME280_pressure;Samples;Min_cycle;Max_cycle;Signal;HPM_P1;HPM_P2
2021/07/31 00:01:17;;;;;;;5.25;2.20;;;;;;;;;;5000135;28;20145;-78
2021/07/31 00:03:45;;;;;;;3.95;2.47;;;;;;;;;;5010664;28;20056;-78
2021/07/31 00:06:29;;;;;;;2.88;2.17;;;;;;;;;;4974492;28;20058;-76
2021/07/31 00:08:57;;;;;;;5.65;2.65;;;;;;;;;;5004870;28;20214;-77
2021/07/31 00:11:25;;;;;;;3.83;2.22;;;;;;;;;;5009665;28;20077;-77
2021/07/31 00:13:55;;;;;;;5.03;2.47;;;;;;;;;;5003893;28;20133;-75
2021/07/31 00:16:23;;;;;;;5.93;2.45;;;;;;;;;;5010631;28;20080;-77
2021/07/31 00:18:52;;;;;;;5.00;2.22;;;;;;;;;;5011375;28;20042;-77
2021/07/31 00:21:22;;;;;;;4.32;2.25;;;;;;;;;;5008967;28;20085;-76
2021/07/31 00:23:50;;;;;;;3.42;2.13;;;;;;;;;;4992864;28;20053;-77
2021/07/31 00:26:18;;;;;;;4.63;2.13;;;;;;;;;;4990480;28;20473;-76
2021/07/31 00:28:47;;;;;;;3.75;1.92;;;;;;;;;;4996501;28;20158;-77
2021/07/31 00:31:17;;;;;;;3.60;2.30;;;;;;;;;;5000843;28;20142;-75
2021/07/31 00:33:45;;;;;;;3.22;2.13;;;;;;;;;;5002868;28;20053;-75
2021/07/31 00:36:14;;;;;;;3.53;2.05;;;;;;;;;;5001807;28;20145;-76
2021/07/31 00:38:42;;;;;;;3.60;2.05;;;;;;;;;;5002786;28;20128;-75
2021/07/31 00:41:10;;;;;;;3.42;2.00;;;;;;;;;;5011293;28;20141;-76
2021/07/31 00:43:38;;;;;;;3.97;2.35;;;;;;;;;;5006197;28;20104;-73
2021/07/31 00:46:07;;;;;;;4.10;2.50;;;;;;;;;;5001041;28;20064;-75
2021/07/31 00:48:37;;;;;;;4.18;2.17;;;;;;;;;;4997538;28;20042;-73
2021/07/31 00:51:05;;;;;;;4.32;2.22;;;;;;;;;;5002904;28;20122;-73
2021/07/31 00:53:34;;;;;;;4.97;2.30;;;;;;;;;;5010313;28;20074;-74
2021/07/31 00:56:02;;;;;;;3.50;2.30;;;;;;;;;;5002558;28;20080;-74
2021/07/31 00:58:31;;;;;;;3.78;2.33;;;;;;;;;;4998036;28;20538;-74
2021/07/31 01:01:00;;;;;;;3.38;2.10;;;;;;;;;;4999996;28;20054;-73
2021/07/31 01:03:28;;;;;;;3.90;2.05;;;;;;;;;;4994854;28;20062;-74
2021/07/31 01:05:58;;;;;;;3.75;2.15;;;;;;;;;;4993120;28;20054;-74
2021/07/31 01:08:26;;;;;;;4.15;2.53;;;;;;;;;;5003411;28;20129;-74
2021/07/31 01:10:55;;;;;;;4.30;2.30;;;;;;;;;;5006214;28;20052;-74
2021/07/31 01:13:24;;;;;;;3.60;2.20;;;;;;;;;;5007221;28;20077;-74
2021/07/31 01:15:59;;;;;;;4.82;2.10;;;;;;;;;;4996417;28;20133;-75
2021/07/31 01:18:28;;;;;;;3.78;1.90;;;;;;;;;;5007229;28;20048;-74
2021/07/31 01:20:57;;;;;;;4.78;2.30;;;;;;;;;;5009718;28;20048;-74
2021/07/31 01:23:27;;;;;;;6.72;2.75;;;;;;;;;;4994894;28;20048;-75
2021/07/31 01:25:55;;;;;;;3.28;2.30;;;;;;;;;;5009846;28;20046;-74
2021/07/31 01:28:24;;;;;;;4.28;2.67;;;;;;;;;;4996372;28;20057;-74
2021/07/31 01:30:52;;;;;;;3.00;2.08;;;;;;;;;;4996837;28;20100;-74
2021/07/31 01:33:21;;;;;;;4.50;2.63;;;;;;;;;;5003012;28;20049;-74
2021/07/31 01:35:49;;;;;;;5.30;2.60;;;;;;;;;;5026454;28;20104;-75
2021/07/31 01:38:17;;;;;;;8.60;2.97;;;;;;;;;;5000971;28;20097;-75
2021/07/31 01:40:47;;;;;;;4.30;2.10;;;;;;;;;;4999702;28;20068;-74
2021/07/31 01:43:15;;;;;;;3.70;2.33;;;;;;;;;;5000121;28;20057;-76
2021/07/31 01:45:43;;;;;;;3.92;2.45;;;;;;;;;;4996489;28;20063;-75
2021/07/31 01:48:11;;;;;;;4.10;2.22;;;;;;;;;;5008341;28;20513;-75
2021/07/31 01:50:42;;;;;;;3.80;2.25;;;;;;;;;;5010503;28;20045;-75
2021/07/31 01:53:10;;;;;;;6.40;2.88;;;;;;;;;;4999046;28;20719;-76
2021/07/31 01:55:38;;;;;;;4.45;2.08;;;;;;;;;;5008926;28;20050;-75
2021/07/31 01:58:08;;;;;;;3.50;2.30;;;;;;;;;;4996722;28;20050;-75
2021/07/31 02:00:36;;;;;;;3.88;2.38;;;;;;;;;;5003700;28;20541;-75
2021/07/31 02:03:05;;;;;;;4.22;2.47;;;;;;;;;;5008324;28;20053;-75
2021/07/31 02:05:33;;;;;;;4.50;2.17;;;;;;;;;;5007332;28;20050;-74
2021/07/31 02:08:01;;;;;;;4.63;2.83;;;;;;;;;;4998699;28;20133;-75
2021/07/31 02:10:30;;;;;;;3.80;2.10;;;;;;;;;;5007827;28;20142;-75
2021/07/31 02:12:58;;;;;;;3.50;2.30;;;;;;;;;;5006718;28;20046;-75
2021/07/31 02:15:28;;;;;;;5.15;2.60;;;;;;;;;;5001183;28;20053;-75
2021/07/31 02:17:57;;;;;;;4.68;2.50;;;;;;;;;;5009867;28;20054;-75
2021/07/31 02:20:25;;;;;;;3.85;2.13;;;;;;;;;;5006324;28;20247;-75
2021/07/31 02:22:53;;;;;;;5.15;2.20;;;;;;;;;;4999894;28;20054;-76
2021/07/31 02:25:22;;;;;;;3.25;2.15;;;;;;;;;;5005466;28;20188;-75
2021/07/31 02:27:50;;;;;;;2.90;1.85;;;;;;;;;;5004369;28;20060;-76
2021/07/31 02:30:18;;;;;;;5.13;2.40;;;;;;;;;;5005149;28;20133;-75
2021/07/31 02:32:48;;;;;;;5.43;2.30;;;;;;;;;;5003888;28;20137;-75
2021/07/31 02:35:16;;;;;;;4.22;2.50;;;;;;;;;;5002377;28;20053;-76
2021/07/31 02:37:45;;;;;;;3.08;1.98;;;;;;;;;;5012646;28;20076;-76
2021/07/31 02:40:13;;;;;;;4.35;2.33;;;;;;;;;;5011980;28;20125;-76
2021/07/31 02:42:41;;;;;;;4.30;2.13;;;;;;;;;;5007385;28;20080;-76
2021/07/31 02:45:10;;;;;;;5.20;2.35;;;;;;;;;;5004786;28;20065;-76
2021/07/31 02:47:38;;;;;;;2.95;2.50;;;;;;;;;;5007520;28;20092;-76
2021/07/31 02:50:09;;;;;;;4.40;2.65;;;;;;;;;;5003015;28;20041;-75
2021/07/31 02:52:37;;;;;;;4.55;2.42;;;;;;;;;;5007593;28;20074;-75
2021/07/31 02:55:06;;;;;;;3.42;2.38;;;;;;;;;;5005854;28;20077;-75
2021/07/31 02:57:34;;;;;;;3.72;2.00;;;;;;;;;;5006661;28;20078;-75
2021/07/31 03:00:04;;;;;;;3.80;2.35;;;;;;;;;;5005734;28;20054;-76
2021/07/31 03:02:32;;;;;;;3.42;2.33;;;;;;;;;;4990894;28;20145;-75
2021/07/31 03:05:01;;;;;;;4.65;2.28;;;;;;;;;;5002719;28;20061;-75
2021/07/31 03:07:32;;;;;;;3.58;2.08;;;;;;;;;;5010885;28;20074;-75
2021/07/31 03:10:01;;;;;;;3.78;2.47;;;;;;;;;;5008790;28;20057;-77
2021/07/31 03:12:29;;;;;;;3.67;2.33;;;;;;;;;;5005354;28;20133;-75
2021/07/31 03:14:57;;;;;;;4.43;2.20;;;;;;;;;;4999093;28;20409;-75
2021/07/31 03:17:26;;;;;;;6.60;2.63;;;;;;;;;;5012766;28;20045;-75
2021/07/31 03:19:54;;;;;;;3.97;2.58;;;;;;;;;;5013254;28;20081;-75
2021/07/31 03:22:22;;;;;;;4.57;2.45;;;;;;;;;;4994420;28;20577;-76
2021/07/31 03:24:52;;;;;;;3.63;2.15;;;;;;;;;;5010385;28;21778;-76
2021/07/31 03:27:20;;;;;;;5.28;2.42;;;;;;;;;;5011655;28;20049;-75
2021/07/31 03:29:58;;;;;;;3.75;2.05;;;;;;;;;;3863182;28;10020750;-75
2021/07/31 03:32:26;;;;;;;5.40;2.40;;;;;;;;;;1722077;28;10002075;-75
2021/07/31 03:34:54;;;;;;;3.83;2.35;;;;;;;;;;5000830;28;20569;-75
2021/07/31 03:37:22;;;;;;;4.22;2.30;;;;;;;;;;5000463;28;20133;-75
2021/07/31 03:39:52;;;;;;;2.78;2.17;;;;;;;;;;4994880;28;20578;-75
2021/07/31 03:42:20;;;;;;;5.72;2.40;;;;;;;;;;5011982;28;20050;-75
2021/07/31 03:44:49;;;;;;;5.32;2.78;;;;;;;;;;5005828;28;20458;-76
2021/07/31 03:47:17;;;;;;;4.55;2.40;;;;;;;;;;5007954;28;20065;-77
2021/07/31 03:49:45;;;;;;;5.03;2.97;;;;;;;;;;5006114;28;20064;-75
2021/07/31 03:52:14;;;;;;;2.83;2.00;;;;;;;;;;5012656;28;20133;-76
2021/07/31 03:54:42;;;;;;;4.18;2.70;;;;;;;;;;5009558;28;20137;-77
2021/07/31 03:57:11;;;;;;;3.47;2.25;;;;;;;;;;5001676;28;20046;-75
2021/07/31 03:59:40;;;;;;;4.22;2.70;;;;;;;;;;5009103;28;20080;-75
2021/07/31 04:02:08;;;;;;;3.90;2.22;;;;;;;;;;5007617;28;20049;-76
2021/07/31 04:04:37;;;;;;;3.90;2.22;;;;;;;;;;5009101;28;20057;-75
2021/07/31 04:07:05;;;;;;;4.80;2.05;;;;;;;;;;5002407;28;20081;-75
2021/07/31 04:09:33;;;;;;;4.15;2.78;;;;;;;;;;5007763;28;20117;-75
2021/07/31 04:12:02;;;;;;;3.75;2.50;;;;;;;;;;5006679;28;20047;-75
2021/07/31 04:14:31;;;;;;;4.90;2.47;;;;;;;;;;4997834;28;20446;-77
2021/07/31 04:17:00;;;;;;;4.35;2.65;;;;;;;;;;5001715;28;20052;-75
2021/07/31 04:19:28;;;;;;;3.35;2.20;;;;;;;;;;5010465;28;20347;-75
2021/07/31 04:21:57;;;;;;;3.80;2.17;;;;;;;;;;5005575;28;20074;-75
2021/07/31 04:24:25;;;;;;;3.95;2.50;;;;;;;;;;4997876;28;20078;-75
2021/07/31 04:26:54;;;;;;;4.28;2.30;;;;;;;;;;4998729;28;20181;-75
2021/07/31 04:29:22;;;;;;;6.18;2.35;;;;;;;;;;5006826;28;20050;-75
2021/07/31 04:31:51;;;;;;;4.28;2.70;;;;;;;;;;5010908;28;20053;-75
2021/07/31 04:34:20;;;;;;;4.50;2.85;;;;;;;;;;5009465;28;20049;-75
2021/07/31 04:36:48;;;;;;;3.95;2.33;;;;;;;;;;5008168;28;20082;-76
2021/07/31 04:39:16;;;;;;;4.88;2.70;;;;;;;;;;5000757;28;20046;-75
2021/07/31 04:41:45;;;;;;;5.75;2.65;;;;;;;;;;4996084;28;20140;-75
2021/07/31 04:44:13;;;;;;;6.07;2.28;;;;;;;;;;5005373;28;20049;-75
2021/07/31 04:46:41;;;;;;;4.20;2.40;;;;;;;;;;4998338;28;20413;-76
2021/07/31 04:49:11;;;;;;;2.80;2.40;;;;;;;;;;4999536;28;20133;-75
2021/07/31 04:51:39;;;;;;;4.30;2.58;;;;;;;;;;5004469;28;20045;-76
2021/07/31 04:54:07;;;;;;;4.80;2.90;;;;;;;;;;4996934;28;20056;-75
2021/07/31 04:56:35;;;;;;;3.17;2.45;;;;;;;;;;4995502;28;20564;-77
2021/07/31 04:59:04;;;;;;;4.00;2.63;;;;;;;;;;4998505;28;20488;-77
2021/07/31 05:01:32;;;;;;;4.80;2.58;;;;;;;;;;5008274;28;20068;-76
2021/07/31 05:04:01;;;;;;;6.28;2.72;;;;;;;;;;4998358;28;20466;-76
2021/07/31 05:06:31;;;;;;;6.10;2.95;;;;;;;;;;5001065;28;20132;-75
2021/07/31 05:08:59;;;;;;;4.30;2.63;;;;;;;;;;5006073;28;20062;-77
2021/07/31 05:11:27;;;;;;;4.68;2.55;;;;;;;;;;5006350;28;20141;-76
2021/07/31 05:13:56;;;;;;;4.47;2.58;;;;;;;;;;5003007;28;20056;-76
2021/07/31 05:16:26;;;;;;;5.13;2.60;;;;;;;;;;5006653;28;20054;-76
2021/07/31 05:18:54;;;;;;;4.60;2.78;;;;;;;;;;5006302;28;20279;-76
2021/07/31 05:21:22;;;;;;;5.40;3.20;;;;;;;;;;5005133;28;20511;-75
2021/07/31 05:23:52;;;;;;;4.53;2.55;;;;;;;;;;5003884;28;20501;-76
2021/07/31 05:26:20;;;;;;;4.20;2.72;;;;;;;;;;5002550;28;20081;-75
2021/07/31 05:28:49;;;;;;;4.65;2.78;;;;;;;;;;5005551;28;20132;-76
2021/07/31 05:31:20;;;;;;;4.28;2.50;;;;;;;;;;5004953;28;20746;-75
2021/07/31 05:33:49;;;;;;;4.80;2.70;;;;;;;;;;4993525;28;20054;-76
2021/07/31 05:36:17;;;;;;;4.20;2.90;;;;;;;;;;5000685;28;20154;-76
2021/07/31 05:38:46;;;;;;;4.82;2.40;;;;;;;;;;5004356;28;20413;-76
2021/07/31 05:41:16;;;;;;;4.20;3.05;;;;;;;;;;5005524;28;20132;-77
2021/07/31 05:43:45;;;;;;;6.15;3.20;;;;;;;;;;5007366;28;20137;-77
2021/07/31 05:46:17;;;;;;;4.65;2.97;;;;;;;;;;5006284;28;20058;-76
2021/07/31 05:48:46;;;;;;;4.82;2.92;;;;;;;;;;4999931;28;20463;-76
2021/07/31 05:51:14;;;;;;;4.55;2.70;;;;;;;;;;4995852;28;20049;-76
2021/07/31 05:53:43;;;;;;;6.85;3.45;;;;;;;;;;5003958;28;20133;-75
2021/07/31 05:56:12;;;;;;;4.43;3.13;;;;;;;;;;5005671;28;20042;-77
2021/07/31 05:58:42;;;;;;;5.93;3.10;;;;;;;;;;5005120;28;20048;-77
2021/07/31 06:01:10;;;;;;;4.80;2.92;;;;;;;;;;5004876;28;20100;-77
2021/07/31 06:03:39;;;;;;;6.68;3.28;;;;;;;;;;5006248;28;20386;-77
2021/07/31 06:06:07;;;;;;;4.90;3.25;;;;;;;;;;4991944;28;20090;-78
2021/07/31 06:08:36;;;;;;;5.22;3.30;;;;;;;;;;5004092;28;20172;-78
2021/07/31 06:11:05;;;;;;;5.45;3.05;;;;;;;;;;5005709;28;20129;-79
2021/07/31 06:13:34;;;;;;;6.45;3.08;;;;;;;;;;5007464;28;20148;-75
2021/07/31 06:16:08;;;;;;;5.80;3.33;;;;;;;;;;5003043;28;20054;-77
2021/07/31 06:18:38;;;;;;;5.45;3.20;;;;;;;;;;5008059;28;20052;-77
2021/07/31 06:21:07;;;;;;;4.65;3.08;;;;;;;;;;5000783;28;20051;-78
2021/07/31 06:23:35;;;;;;;3.83;2.67;;;;;;;;;;5004579;28;20081;-79
2021/07/31 06:26:03;;;;;;;5.03;2.70;;;;;;;;;;5005798;28;20137;-77
2021/07/31 06:28:32;;;;;;;5.18;2.90;;;;;;;;;;5006967;28;20444;-73
2021/07/31 06:31:00;;;;;;;4.53;2.88;;;;;;;;;;5007163;28;20064;-76
2021/07/31 06:33:29;;;;;;;4.25;2.58;;;;;;;;;;5006856;28;20513;-77
2021/07/31 06:35:58;;;;;;;10.38;2.90;;;;;;;;;;5006657;28;20298;-75
2021/07/31 06:38:26;;;;;;;4.75;2.58;;;;;;;;;;5009948;28;20133;-75
2021/07/31 06:40:54;;;;;;;6.88;2.53;;;;;;;;;;5007175;28;20056;-76
2021/07/31 06:43:22;;;;;;;5.28;2.95;;;;;;;;;;4998281;28;20129;-76
2021/07/31 06:45:51;;;;;;;6.00;3.08;;;;;;;;;;4983230;28;20463;-75
2021/07/31 06:48:19;;;;;;;5.35;2.63;;;;;;;;;;4993887;28;20501;-75
2021/07/31 06:50:48;;;;;;;5.72;2.55;;;;;;;;;;5004134;28;20044;-76
2021/07/31 06:53:17;;;;;;;4.63;2.78;;;;;;;;;;5002555;28;20133;-75
2021/07/31 06:55:45;;;;;;;4.68;2.65;;;;;;;;;;5006959;28;20644;-74
2021/07/31 06:58:13;;;;;;;4.55;2.55;;;;;;;;;;5007933;28;20041;-74
2021/07/31 07:00:41;;;;;;;6.22;2.80;;;;;;;;;;5007328;28;20046;-76
2021/07/31 07:03:10;;;;;;;4.10;2.33;;;;;;;;;;5002927;28;20065;-75
2021/07/31 07:05:38;;;;;;;3.38;2.53;;;;;;;;;;4998237;28;20054;-75
2021/07/31 07:08:08;;;;;;;3.33;2.00;;;;;;;;;;5009009;28;20146;-77
2021/07/31 07:10:36;;;;;;;5.03;2.30;;;;;;;;;;5011318;28;20085;-77
2021/07/31 07:13:05;;;;;;;4.22;2.75;;;;;;;;;;4992698;28;20086;-77
2021/07/31 07:15:33;;;;;;;5.03;2.90;;;;;;;;;;4987592;28;20490;-76
2021/07/31 07:18:01;;;;;;;6.35;3.08;;;;;;;;;;5003484;28;20046;-76
2021/07/31 07:20:30;;;;;;;8.23;2.50;;;;;;;;;;5002226;28;20062;-75
2021/07/31 07:22:58;;;;;;;5.50;3.13;;;;;;;;;;5006989;28;20123;-75
2021/07/31 07:25:27;;;;;;;4.88;2.80;;;;;;;;;;5001580;28;20085;-75
2021/07/31 07:27:56;;;;;;;4.60;2.95;;;;;;;;;;5006242;28;20558;-74
2021/07/31 07:30:24;;;;;;;5.43;3.20;;;;;;;;;;5006620;28;20080;-76
2021/07/31 07:32:53;;;;;;;6.18;3.78;;;;;;;;;;4990243;28;20254;-75
2021/07/31 07:35:21;;;;;;;6.05;3.10;;;;;;;;;;5001190;28;20048;-76
2021/07/31 07:37:49;;;;;;;9.82;3.22;;;;;;;;;;5007552;28;20461;-76
2021/07/31 07:40:18;;;;;;;4.90;3.30;;;;;;;;;;5001928;28;20125;-75
2021/07/31 07:42:47;;;;;;;7.60;4.18;;;;;;;;;;4994317;28;20054;-76
2021/07/31 07:45:16;;;;;;;6.05;3.03;;;;;;;;;;5001898;28;20050;-75
2021/07/31 07:47:44;;;;;;;7.28;2.72;;;;;;;;;;4992519;28;20058;-75
2021/07/31 07:50:12;;;;;;;5.88;3.35;;;;;;;;;;4998922;28;20064;-76
2021/07/31 07:52:41;;;;;;;5.57;3.13;;;;;;;;;;5000353;28;20081;-75
2021/07/31 07:55:09;;;;;;;4.13;2.40;;;;;;;;;;4990485;28;20403;-76
2021/07/31 07:57:40;;;;;;;6.45;3.03;;;;;;;;;;5008142;28;20045;-76
2021/07/31 08:00:10;;;;;;;5.53;3.45;;;;;;;;;;5005994;28;20201;-76
2021/07/31 08:02:38;;;;;;;5.60;3.10;;;;;;;;;;4996197;28;20136;-76
2021/07/31 08:05:08;;;;;;;4.93;3.13;;;;;;;;;;5007290;28;20054;-75
2021/07/31 08:07:36;;;;;;;3.60;2.70;;;;;;;;;;5008577;28;20144;-76
2021/07/31 08:10:06;;;;;;;5.63;2.90;;;;;;;;;;5008145;28;20100;-76
2021/07/31 08:12:34;;;;;;;5.60;3.00;;;;;;;;;;5005918;28;20049;-75
2021/07/31 08:15:02;;;;;;;6.75;2.72;;;;;;;;;;5008469;28;20089;-77
2021/07/31 08:17:32;;;;;;;3.53;2.35;;;;;;;;;;5005766;28;20072;-75
2021/07/31 08:20:01;;;;;;;4.50;2.80;;;;;;;;;;5008091;28;20892;-75
2021/07/31 08:22:29;;;;;;;4.03;2.60;;;;;;;;;;5005491;28;20048;-75
2021/07/31 08:24:58;;;;;;;4.45;2.67;;;;;;;;;;5005859;28;20497;-73
2021/07/31 08:27:26;;;;;;;6.75;2.53;;;;;;;;;;5007236;28;20144;-74
2021/07/31 08:29:54;;;;;;;7.72;2.45;;;;;;;;;;5009421;28;20560;-73
2021/07/31 08:32:22;;;;;;;5.07;2.63;;;;;;;;;;5009792;28;20136;-74
2021/07/31 08:34:52;;;;;;;10.38;3.13;;;;;;;;;;5009240;28;20056;-73
2021/07/31 08:37:21;;;;;;;4.07;2.40;;;;;;;;;;5009311;28;20053;-73
2021/07/31 08:39:49;;;;;;;4.55;2.97;;;;;;;;;;5009715;28;20162;-73
2021/07/31 08:42:17;;;;;;;4.68;2.60;;;;;;;;;;5009906;28;20050;-74
2021/07/31 08:44:46;;;;;;;5.05;2.80;;;;;;;;;;5009194;28;20104;-73
2021/07/31 08:47:14;;;;;;;3.50;2.17;;;;;;;;;;5009562;28;20053;-74
2021/07/31 08:49:45;;;;;;;3.42;2.05;;;;;;;;;;5009743;28;20073;-73
2021/07/31 08:52:16;;;;;;;5.13;2.10;;;;;;;;;;5009593;28;20058;-72
2021/07/31 08:54:44;;;;;;;5.72;2.47;;;;;;;;;;5007984;28;20484;-72
2021/07/31 08:57:12;;;;;;;4.63;2.17;;;;;;;;;;5009432;28;20145;-75
2021/07/31 08:59:41;;;;;;;5.97;2.30;;;;;;;;;;5008556;28;20526;-73
2021/07/31 09:02:10;;;;;;;4.10;2.15;;;;;;;;;;5007775;28;20054;-71
2021/07/31 09:04:43;;;;;;;5.50;2.53;;;;;;;;;;5001344;28;20056;-71
2021/07/31 09:07:16;;;;;;;6.07;2.67;;;;;;;;;;4989549;28;20054;-74
2021/07/31 09:09:46;;;;;;;4.90;2.60;;;;;;;;;;4997678;28;20050;-72
2021/07/31 09:12:14;;;;;;;6.07;3.10;;;;;;;;;;4993145;28;20413;-73
2021/07/31 09:14:46;;;;;;;4.55;2.85;;;;;;;;;;5007161;28;20156;-72
2021/07/31 09:17:25;;;;;;;4.93;2.47;;;;;;;;;;5008773;28;20099;-74
2021/07/31 09:19:54;;;;;;;5.10;2.55;;;;;;;;;;4997009;28;20113;-70
2021/07/31 09:22:26;;;;;;;3.38;2.60;;;;;;;;;;4988634;28;20534;-70
2021/07/31 09:25:10;;;;;;;4.93;2.60;;;;;;;;;;5002370;28;20062;-72
2021/07/31 09:27:38;;;;;;;4.22;2.88;;;;;;;;;;5008022;28;20058;-70
2021/07/31 09:30:07;;;;;;;4.57;3.00;;;;;;;;;;5007362;28;20137;-73
2021/07/31 09:32:40;;;;;;;5.45;3.00;;;;;;;;;;5008169;28;20581;-72
2021/07/31 09:35:21;;;;;;;6.22;3.20;;;;;;;;;;5007721;28;20116;-72
2021/07/31 09:37:52;;;;;;;6.47;3.40;;;;;;;;;;5000017;28;20133;-70
2021/07/31 09:40:28;;;;;;;5.93;2.95;;;;;;;;;;5007022;28;20053;-70
2021/07/31 09:42:57;;;;;;;5.63;2.83;;;;;;;;;;5008723;28;20085;-71
2021/07/31 09:45:33;;;;;;;4.18;2.70;;;;;;;;;;4987836;28;20505;-71
2021/07/31 09:48:02;;;;;;;3.95;2.60;;;;;;;;;;5008057;28;20069;-71
2021/07/31 09:50:40;;;;;;;6.80;2.63;;;;;;;;;;5008818;28;20138;-72
2021/07/31 09:53:13;;;;;;;5.13;2.90;;;;;;;;;;5007623;28;20053;-74
2021/07/31 09:55:46;;;;;;;3.72;2.55;;;;;;;;;;5006401;28;20072;-72
2021/07/31 09:58:15;;;;;;;3.63;2.45;;;;;;;;;;5007948;28;20145;-74
2021/07/31 10:00:45;;;;;;;3.70;2.45;;;;;;;;;;5008477;28;20549;-75
2021/07/31 10:03:14;;;;;;;5.53;2.83;;;;;;;;;;5007904;28;20060;-74
2021/07/31 10:05:43;;;;;;;4.88;2.42;;;;;;;;;;5005643;28;20046;-77
2021/07/31 10:08:34;;;;;;;3.25;2.17;;;;;;;;;;5006739;28;20042;-70
2021/07/31 10:11:02;;;;;;;3.88;2.42;;;;;;;;;;4995607;28;20695;-71
2021/07/31 10:13:31;;;;;;;4.70;2.55;;;;;;;;;;4992647;28;20472;-70
2021/07/31 10:15:59;;;;;;;4.07;2.55;;;;;;;;;;5006034;28;20042;-70
2021/07/31 10:18:28;;;;;;;4.28;2.70;;;;;;;;;;5007482;28;20054;-71
2021/07/31 10:21:04;;;;;;;4.03;2.35;;;;;;;;;;5007396;28;20050;-74
2021/07/31 10:23:51;;;;;;;3.85;2.90;;;;;;;;;;5008077;28;20069;-71
2021/07/31 10:26:20;;;;;;;4.50;2.75;;;;;;;;;;4988568;28;20129;-72
2021/07/31 10:28:49;;;;;;;5.25;2.50;;;;;;;;;;5004343;28;20053;-72
2021/07/31 10:31:30;;;;;;;4.65;2.72;;;;;;;;;;5007192;28;20046;-72
2021/07/31 10:33:59;;;;;;;4.65;2.30;;;;;;;;;;5007764;28;20062;-72
2021/07/31 10:36:29;;;;;;;8.60;2.78;;;;;;;;;;4996605;28;20133;-76
2021/07/31 10:38:57;;;;;;;4.45;2.50;;;;;;;;;;4990395;28;20101;-71
2021/07/31 10:41:40;;;;;;;2.50;2.05;;;;;;;;;;5003249;28;20049;-72
2021/07/31 10:44:11;;;;;;;4.85;2.58;;;;;;;;;;5004788;28;20141;-72
2021/07/31 10:46:39;;;;;;;4.75;2.15;;;;;;;;;;4996718;28;20083;-72
2021/07/31 10:49:26;;;;;;;3.47;2.35;;;;;;;;;;5007025;28;20054;-71
2021/07/31 10:51:55;;;;;;;4.05;2.42;;;;;;;;;;5003938;28;20054;-73
2021/07/31 10:54:53;;;;;;;4.15;2.40;;;;;;;;;;4991026;28;20136;-72
2021/07/31 10:57:45;;;;;;;3.45;2.17;;;;;;;;;;4989672;28;20164;-72
2021/07/31 11:00:21;;;;;;;3.45;2.30;;;;;;;;;;5007533;28;20596;-75
2021/07/31 11:02:49;;;;;;;2.60;1.77;;;;;;;;;;4997416;28;20061;-72
2021/07/31 11:05:18;;;;;;;3.47;2.22;;;;;;;;;;5007102;28;20061;-72
2021/07/31 11:08:05;;;;;;;3.50;2.13;;;;;;;;;;5005772;28;20533;-72
2021/07/31 11:10:39;;;;;;;4.00;2.20;;;;;;;;;;5006691;28;20050;-73
2021/07/31 11:13:09;;;;;;;3.83;2.40;;;;;;;;;;5007271;28;20136;-69
2021/07/31 11:15:37;;;;;;;4.70;2.78;;;;;;;;;;5005541;28;20133;-71
2021/07/31 11:18:06;;;;;;;3.78;2.25;;;;;;;;;;5006233;28;20042;-71
2021/07/31 11:20:35;;;;;;;5.88;2.63;;;;;;;;;;5006656;28;20125;-70
2021/07/31 11:23:04;;;;;;;4.57;2.30;;;;;;;;;;5007251;28;20518;-70
2021/07/31 11:25:33;;;;;;;5.20;2.35;;;;;;;;;;5011181;28;20084;-72
2021/07/31 11:28:02;;;;;;;4.05;2.72;;;;;;;;;;5011403;28;20053;-72
2021/07/31 11:30:45;;;;;;;3.95;2.20;;;;;;;;;;5012483;28;20057;-71
2021/07/31 11:33:24;;;;;;;4.03;2.13;;;;;;;;;;5012895;28;20042;-73
2021/07/31 11:35:53;;;;;;;4.53;2.50;;;;;;;;;;5010878;28;20057;-69
2021/07/31 11:38:33;;;;;;;2.90;2.03;;;;;;;;;;5009257;28;20329;-71
2021/07/31 11:41:03;;;;;;;3.50;2.15;;;;;;;;;;5010551;28;20061;-71
2021/07/31 11:43:42;;;;;;;4.05;1.95;;;;;;;;;;5008768;28;20073;-69
2021/07/31 11:46:13;;;;;;;3.95;2.42;;;;;;;;;;5009832;28;20135;-71
2021/07/31 11:48:47;;;;;;;4.03;2.03;;;;;;;;;;5009375;28;20830;-73
2021/07/31 11:51:15;;;;;;;3.58;2.45;;;;;;;;;;5010244;28;20141;-72
2021/07/31 11:53:44;;;;;;;5.13;2.42;;;;;;;;;;5006151;28;20136;-72
2021/07/31 11:56:12;;;;;;;4.15;2.50;;;;;;;;;;5007781;28;20137;-70
2021/07/31 11:58:42;;;;;;;3.63;2.30;;;;;;;;;;5007721;28;20077;-75
2021/07/31 12:01:11;;;;;;;4.13;2.20;;;;;;;;;;5008849;28;20133;-72
2021/07/31 12:03:42;;;;;;;4.60;2.33;;;;;;;;;;5008452;28;20411;-70
2021/07/31 12:06:33;;;;;;;4.53;2.25;;;;;;;;;;5006888;28;20150;-70
2021/07/31 12:09:02;;;;;;;3.50;2.20;;;;;;;;;;5006878;28;20050;-70
2021/07/31 12:11:34;;;;;;;3.88;2.08;;;;;;;;;;4998642;28;20066;-69
2021/07/31 12:14:03;;;;;;;4.90;2.60;;;;;;;;;;4997150;28;20077;-71
2021/07/31 12:16:31;;;;;;;4.55;2.38;;;;;;;;;;5006558;28;20494;-71
2021/07/31 12:19:01;;;;;;;3.45;2.20;;;;;;;;;;5008425;28;20057;-74
2021/07/31 12:21:30;;;;;;;4.07;2.40;;;;;;;;;;5007743;28;20410;-72
2021/07/31 12:23:58;;;;;;;4.82;2.20;;;;;;;;;;5006518;28;20057;-72
2021/07/31 12:26:30;;;;;;;3.53;1.90;;;;;;;;;;5000054;28;20549;-75
2021/07/31 12:28:58;;;;;;;3.72;2.63;;;;;;;;;;5001785;28;20053;-70
2021/07/31 12:31:27;;;;;;;3.90;2.00;;;;;;;;;;5001558;28;20098;-71
2021/07/31 12:33:56;;;;;;;3.08;2.42;;;;;;;;;;4989422;28;20216;-69
2021/07/31 12:36:26;;;;;;;4.18;2.25;;;;;;;;;;4994759;28;20081;-70
2021/07/31 12:38:55;;;;;;;4.15;2.20;;;;;;;;;;5008959;28;20532;-70
2021/07/31 12:41:24;;;;;;;3.63;2.47;;;;;;;;;;5008271;28;20046;-70
2021/07/31 12:43:53;;;;;;;3.25;1.92;;;;;;;;;;5005485;28;20049;-70
2021/07/31 12:46:22;;;;;;;3.97;1.92;;;;;;;;;;5008361;28;20046;-70
2021/07/31 12:48:51;;;;;;;2.58;2.10;;;;;;;;;;5006197;28;20138;-70
2021/07/31 12:51:19;;;;;;;2.88;2.10;;;;;;;;;;4996114;28;20508;-70
2021/07/31 12:53:49;;;;;;;3.75;2.22;;;;;;;;;;4996529;28;20052;-69
2021/07/31 12:56:19;;;;;;;2.28;1.77;;;;;;;;;;5001039;28;20135;-70
2021/07/31 12:58:48;;;;;;;3.97;2.45;;;;;;;;;;5007236;28;20078;-71
2021/07/31 13:01:16;;;;;;;4.05;2.15;;;;;;;;;;5003010;28;20184;-69
2021/07/31 13:03:47;;;;;;;3.40;2.03;;;;;;;;;;5003156;28;20054;-72
2021/07/31 13:06:16;;;;;;;5.88;2.45;;;;;;;;;;4998913;28;20049;-69
2021/07/31 13:08:44;;;;;;;2.03;1.70;;;;;;;;;;5004934;28;20104;-74
2021/07/31 13:11:14;;;;;;;5.32;2.50;;;;;;;;;;4996726;28;20342;-70
2021/07/31 13:13:42;;;;;;;3.83;2.22;;;;;;;;;;5004878;28;20150;-71
2021/07/31 13:16:10;;;;;;;3.83;1.77;;;;;;;;;;4989464;28;20144;-71
2021/07/31 13:18:39;;;;;;;3.78;2.28;;;;;;;;;;5007092;28;20049;-70
2021/07/31 13:21:08;;;;;;;3.30;1.85;;;;;;;;;;4990091;28;20053;-70
2021/07/31 13:23:36;;;;;;;2.42;1.88;;;;;;;;;;5003762;28;20124;-72
2021/07/31 13:26:04;;;;;;;5.75;1.88;;;;;;;;;;5005641;28;20054;-71
2021/07/31 13:28:34;;;;;;;2.80;1.80;;;;;;;;;;5001907;28;20167;-70
2021/07/31 13:31:02;;;;;;;2.58;1.90;;;;;;;;;;5003313;28;20069;-71
2021/07/31 13:33:31;;;;;;;6.85;2.10;;;;;;;;;;4989982;28;20050;-69
2021/07/31 13:35:59;;;;;;;3.72;2.60;;;;;;;;;;5000030;28;20137;-71
2021/07/31 13:38:33;;;;;;;4.07;2.22;;;;;;;;;;4992505;28;20133;-71
2021/07/31 13:41:03;;;;;;;3.42;2.08;;;;;;;;;;4997687;28;20050;-70
2021/07/31 13:43:37;;;;;;;3.70;2.47;;;;;;;;;;5002927;28;20044;-69
2021/07/31 13:46:08;;;;;;;3.30;1.73;;;;;;;;;;4993368;28;20050;-69
2021/07/31 13:48:36;;;;;;;3.83;2.10;;;;;;;;;;4995967;28;20050;-70
2021/07/31 13:51:04;;;;;;;3.42;1.88;;;;;;;;;;4992659;28;20042;-72
2021/07/31 13:53:33;;;;;;;2.90;2.03;;;;;;;;;;4988660;28;20160;-69
2021/07/31 13:56:01;;;;;;;3.65;2.42;;;;;;;;;;5007472;28;20053;-70
2021/07/31 13:58:30;;;;;;;2.83;1.75;;;;;;;;;;5006400;28;20470;-69
2021/07/31 14:00:59;;;;;;;2.83;2.22;;;;;;;;;;5007767;28;20108;-71
2021/07/31 14:03:28;;;;;;;3.80;2.13;;;;;;;;;;5001548;28;20159;-72
2021/07/31 14:05:57;;;;;;;3.53;1.60;;;;;;;;;;5006909;28;20133;-70
2021/07/31 14:08:25;;;;;;;3.00;2.00;;;;;;;;;;5005798;28;20338;-70
2021/07/31 14:10:53;;;;;;;2.53;1.75;;;;;;;;;;5001194;28;20108;-70
2021/07/31 14:13:22;;;;;;;4.22;2.47;;;;;;;;;;5007391;28;20038;-69
2021/07/31 14:15:50;;;;;;;2.50;1.83;;;;;;;;;;5007241;28;20132;-69
2021/07/31 14:18:18;;;;;;;2.80;1.92;;;;;;;;;;5005251;28;20042;-71
2021/07/31 14:20:48;;;;;;;2.90;1.85;;;;;;;;;;5007187;28;20462;-70
2021/07/31 14:23:17;;;;;;;2.30;1.88;;;;;;;;;;5009915;28;20049;-72
2021/07/31 14:25:45;;;;;;;4.18;1.80;;;;;;;;;;5006261;28;20072;-70
2021/07/31 14:28:14;;;;;;;2.72;2.03;;;;;;;;;;5007715;28;20077;-72
2021/07/31 14:30:42;;;;;;;2.97;2.00;;;;;;;;;;5007539;28;20049;-71
2021/07/31 14:33:10;;;;;;;3.88;1.98;;;;;;;;;;5007569;28;20454;-71
2021/07/31 14:35:39;;;;;;;3.42;2.05;;;;;;;;;;5007122;28;20144;-71
2021/07/31 14:38:08;;;;;;;3.53;1.98;;;;;;;;;;5004766;28;20176;-71
2021/07/31 14:40:37;;;;;;;2.97;2.10;;;;;;;;;;5006239;28;20143;-71
2021/07/31 14:43:08;;;;;;;4.43;2.25;;;;;;;;;;4987152;28;20272;-70
2021/07/31 14:45:36;;;;;;;4.13;1.85;;;;;;;;;;5004340;28;20494;-71
2021/07/31 14:48:05;;;;;;;2.35;1.70;;;;;;;;;;5007756;28;20141;-70
2021/07/31 14:50:33;;;;;;;2.85;1.85;;;;;;;;;;5005456;28;20548;-71
2021/07/31 14:53:02;;;;;;;3.40;2.10;;;;;;;;;;5004592;28;20494;-69
2021/07/31 14:55:32;;;;;;;3.10;1.80;;;;;;;;;;5003620;28;20041;-72
2021/07/31 14:58:00;;;;;;;4.18;2.10;;;;;;;;;;5009864;28;20061;-70